createdAt,value
2019-05-23T00:00:30.435Z,5.79
2019-05-23T00:01:30.404Z,5.89
2019-05-23T00:02:30.375Z,5.86
2019-05-23T00:03:30.345Z,5.85
2019-05-23T00:04:30.316Z,5.75
2019-05-23T00:05:30.286Z,5.72
2019-05-23T00:06:30.256Z,5.81
2019-05-23T00:07:30.228Z,5.81
2019-05-23T00:08:30.199Z,5.74
2019-05-23T00:09:30.173Z,5.76
2019-05-23T00:10:30.138Z,5.72
2019-05-23T00:11:30.109Z,5.63
2019-05-23T00:12:30.079Z,5.56
2019-05-23T00:13:30.049Z,5.58
2019-05-23T00:14:30.021Z,5.56
2019-05-23T00:15:29.992Z,5.56
2019-05-23T00:16:29.962Z,5.56
2019-05-23T00:17:29.932Z,5.48
2019-05-23T00:18:29.901Z,5.49
2019-05-23T00:19:29.888Z,5.43
2019-05-23T00:20:29.842Z,5.40
2019-05-23T00:21:29.815Z,5.48
2019-05-23T00:22:29.785Z,5.40
2019-05-23T00:23:29.755Z,5.49
2019-05-23T00:24:29.725Z,5.45
2019-05-23T00:25:29.711Z,5.43
2019-05-23T00:26:29.665Z,5.43
2019-05-23T00:27:29.637Z,5.36
2019-05-23T00:28:29.607Z,5.43
2019-05-23T00:29:29.577Z,5.35
2019-05-23T00:30:29.548Z,5.42
2019-05-23T00:31:29.521Z,5.40
2019-05-23T00:32:29.488Z,5.24
2019-05-23T00:33:29.458Z,5.35
2019-05-23T00:34:29.449Z,5.33
2019-05-23T00:35:29.398Z,5.39
2019-05-23T00:36:29.369Z,5.30
2019-05-23T00:37:29.342Z,5.24
2019-05-23T00:38:29.309Z,5.39
2019-05-23T00:39:29.282Z,5.38
2019-05-23T00:40:29.250Z,5.43
2019-05-23T00:41:29.221Z,5.48
2019-05-23T00:42:29.189Z,5.53
2019-05-23T00:43:29.161Z,5.54
2019-05-23T00:44:29.132Z,5.56
2019-05-23T00:45:29.113Z,5.53
2019-05-23T00:46:29.080Z,5.54
2019-05-23T00:47:29.072Z,5.53
2019-05-23T00:48:29.018Z,5.42
2019-05-23T00:49:29.017Z,5.51
2019-05-23T00:50:28.951Z,5.49
2019-05-23T00:51:28.923Z,5.42
2019-05-23T00:52:28.897Z,5.45
2019-05-23T00:53:28.863Z,5.46
2019-05-23T00:54:28.833Z,5.45
2019-05-23T00:55:29.013Z,5.43
2019-05-23T00:56:28.772Z,5.43
2019-05-23T00:57:28.743Z,5.38
2019-05-23T00:58:28.713Z,5.35
2019-05-23T00:59:28.684Z,5.36
2019-05-23T01:00:28.656Z,5.38
2019-05-23T01:01:28.624Z,5.48
2019-05-23T01:02:28.595Z,5.46
2019-05-23T01:03:28.580Z,5.45
2019-05-23T01:04:28.533Z,5.48
2019-05-23T01:05:28.505Z,5.35
2019-05-23T01:06:28.478Z,5.31
2019-05-23T01:07:28.447Z,5.24
2019-05-23T01:08:28.416Z,5.27
2019-05-23T01:09:28.388Z,5.31
2019-05-23T01:10:28.354Z,5.39
2019-05-23T01:11:28.324Z,5.46
2019-05-23T01:12:28.299Z,5.45
2019-05-23T01:13:28.265Z,5.45
2019-05-23T01:14:28.242Z,5.46
2019-05-23T01:15:28.204Z,5.31
2019-05-23T01:16:28.173Z,5.30
2019-05-23T01:17:28.144Z,5.27
2019-05-23T01:18:28.112Z,5.20
2019-05-23T01:19:28.083Z,5.21
2019-05-23T01:20:28.053Z,5.20
2019-05-23T01:21:28.027Z,5.07
2019-05-23T01:22:27.992Z,5.00
2019-05-23T01:23:27.967Z,4.97
2019-05-23T01:24:27.933Z,4.88
2019-05-23T01:25:27.903Z,4.91
2019-05-23T01:26:27.873Z,4.97
2019-05-23T01:27:27.910Z,4.82
2019-05-23T01:28:27.814Z,4.92
2019-05-23T01:29:37.129Z,4.84
2019-05-23T01:30:27.750Z,4.82
2019-05-23T01:31:27.742Z,4.85
2019-05-23T01:32:27.710Z,4.80
2019-05-23T01:33:27.663Z,4.84
2019-05-23T01:34:27.632Z,4.84
2019-05-23T01:35:27.601Z,4.84
2019-05-23T01:36:27.571Z,4.86
2019-05-23T01:37:27.539Z,4.88
2019-05-23T01:38:27.511Z,4.94
2019-05-23T01:39:27.479Z,4.82
2019-05-23T01:40:27.451Z,4.75
2019-05-23T01:41:27.426Z,4.80
2019-05-23T01:42:27.391Z,4.73
2019-05-23T01:43:27.359Z,4.75
2019-05-23T01:44:27.329Z,4.69
2019-05-23T01:45:27.298Z,4.72
2019-05-23T01:46:27.269Z,4.67
2019-05-23T01:47:27.237Z,4.67
2019-05-23T01:48:27.207Z,4.62
2019-05-23T01:49:27.181Z,4.58
2019-05-23T01:50:27.154Z,4.54
2019-05-23T01:51:27.117Z,4.59
2019-05-23T01:52:27.092Z,4.52
2019-05-23T01:53:27.056Z,4.42
2019-05-23T01:54:27.024Z,4.40
2019-05-23T01:55:26.995Z,4.45
2019-05-23T01:56:26.963Z,4.34
2019-05-23T01:57:26.934Z,4.42
2019-05-23T01:58:26.902Z,4.36
2019-05-23T01:59:26.871Z,4.42
2019-05-23T02:00:26.843Z,4.41
2019-05-23T02:01:26.811Z,4.41
2019-05-23T02:02:26.782Z,4.33
2019-05-23T02:03:26.749Z,4.33
2019-05-23T02:04:26.733Z,4.34
2019-05-23T02:05:26.690Z,4.24
2019-05-23T02:06:26.662Z,4.20
2019-05-23T02:07:26.639Z,4.34
2019-05-23T02:08:26.600Z,4.23
2019-05-23T02:09:26.572Z,4.15
2019-05-23T02:10:26.537Z,4.06
2019-05-23T02:11:26.506Z,4.15
2019-05-23T02:12:26.478Z,4.15
2019-05-23T02:13:26.446Z,4.08
2019-05-23T02:14:26.415Z,3.98
2019-05-23T02:15:26.383Z,4.04
2019-05-23T02:16:26.354Z,4.00
2019-05-23T02:17:26.327Z,3.91
2019-05-23T02:18:26.292Z,4.00
2019-05-23T02:19:26.261Z,4.06
2019-05-23T02:20:26.233Z,4.06
2019-05-23T02:21:26.203Z,4.00
2019-05-23T02:22:26.172Z,3.97
2019-05-23T02:23:26.142Z,3.90
2019-05-23T02:24:26.119Z,3.87
2019-05-23T02:25:26.098Z,3.72
2019-05-23T02:26:26.048Z,3.75
2019-05-23T02:27:26.019Z,3.72
2019-05-23T02:28:25.994Z,3.72
2019-05-23T02:29:26.101Z,3.61
2019-05-23T02:30:35.750Z,3.61
2019-05-23T02:31:25.894Z,3.52
2019-05-23T02:32:25.865Z,3.55
2019-05-23T02:33:25.832Z,3.54
2019-05-23T02:34:25.803Z,3.45
2019-05-23T02:35:25.772Z,3.52
2019-05-23T02:36:25.742Z,3.54
2019-05-23T02:37:25.712Z,3.57
2019-05-23T02:38:25.683Z,3.60
2019-05-23T02:39:25.650Z,3.70
2019-05-23T02:40:25.619Z,3.72
2019-05-23T02:41:25.604Z,3.70
2019-05-23T02:42:25.555Z,3.73
2019-05-23T02:43:25.527Z,3.69
2019-05-23T02:44:25.538Z,3.62
2019-05-23T02:45:25.465Z,3.62
2019-05-23T02:46:25.451Z,3.70
2019-05-23T02:47:25.403Z,3.73
2019-05-23T02:48:25.376Z,3.72
2019-05-23T02:49:25.423Z,3.58
2019-05-23T02:50:25.403Z,3.58
2019-05-23T02:51:25.280Z,3.43
2019-05-23T02:52:25.247Z,3.35
2019-05-23T02:53:25.216Z,3.26
2019-05-23T02:54:25.187Z,3.26
2019-05-23T02:55:25.153Z,3.20
2019-05-23T02:56:25.122Z,3.13
2019-05-23T02:57:25.092Z,3.13
2019-05-23T02:58:25.062Z,3.17
2019-05-23T02:59:25.031Z,3.17
2019-05-23T03:00:24.999Z,3.10
2019-05-23T03:01:25.042Z,3.14
2019-05-23T03:02:24.938Z,3.24
2019-05-23T03:03:24.906Z,3.17
2019-05-23T03:04:24.881Z,3.20
2019-05-23T03:05:24.844Z,3.15
2019-05-23T03:06:24.814Z,3.21
2019-05-23T03:07:24.782Z,3.28
2019-05-23T03:08:24.753Z,3.35
2019-05-23T03:09:24.722Z,3.45
2019-05-23T03:10:24.700Z,3.57
2019-05-23T03:11:24.659Z,3.57
2019-05-23T03:12:25.448Z,3.57
2019-05-23T03:13:24.596Z,3.61
2019-05-23T03:14:24.564Z,3.61
2019-05-23T03:15:24.536Z,3.57
2019-05-23T03:16:24.517Z,3.57
2019-05-23T03:17:24.476Z,3.60
2019-05-23T03:18:24.439Z,3.60
2019-05-23T03:19:24.413Z,3.55
2019-05-23T03:20:24.378Z,3.50
2019-05-23T03:21:24.357Z,3.54
2019-05-23T03:22:24.321Z,3.45
2019-05-23T03:23:24.286Z,3.35
2019-05-23T03:24:24.268Z,3.36
2019-05-23T03:25:24.226Z,3.43
2019-05-23T03:26:24.194Z,3.52
2019-05-23T03:27:24.167Z,3.57
2019-05-23T03:28:24.130Z,3.66
2019-05-23T03:29:24.100Z,3.61
2019-05-23T03:30:24.070Z,3.62
2019-05-23T03:31:30.763Z,3.66
2019-05-23T03:32:24.009Z,3.69
2019-05-23T03:33:23.978Z,3.73
2019-05-23T03:34:23.949Z,3.72
2019-05-23T03:35:23.915Z,3.73
2019-05-23T03:36:23.884Z,3.62
2019-05-23T03:37:23.857Z,3.72
2019-05-23T03:38:23.824Z,3.80
2019-05-23T03:39:23.797Z,3.86
2019-05-23T03:40:23.766Z,3.94
2019-05-23T03:41:23.730Z,3.97
2019-05-23T03:42:23.702Z,4.05
2019-05-23T03:43:23.668Z,4.15
2019-05-23T03:44:23.640Z,4.06
2019-05-23T03:45:23.609Z,4.12
2019-05-23T03:46:23.575Z,4.18
2019-05-23T03:47:23.544Z,4.20
2019-05-23T03:48:23.515Z,4.29
2019-05-23T03:49:23.483Z,4.26
2019-05-23T03:50:23.451Z,4.29
2019-05-23T03:51:23.426Z,4.33
2019-05-23T03:52:23.389Z,4.37
2019-05-23T03:53:23.366Z,4.34
2019-05-23T03:54:23.328Z,4.44
2019-05-23T03:55:23.298Z,4.42
2019-05-23T03:56:23.268Z,4.50
2019-05-23T03:57:25.717Z,4.62
2019-05-23T03:58:23.210Z,4.75
2019-05-23T03:59:23.176Z,4.78
2019-05-23T04:00:23.153Z,4.73
2019-05-23T04:01:23.116Z,4.85
2019-05-23T04:02:23.086Z,4.70
2019-05-23T04:03:23.053Z,4.80
2019-05-23T04:04:23.023Z,4.82
2019-05-23T04:05:22.993Z,4.80
2019-05-23T04:06:22.963Z,4.84
2019-05-23T04:07:22.976Z,4.86
2019-05-23T04:08:22.904Z,4.89
2019-05-23T04:09:22.871Z,4.97
2019-05-23T04:10:22.843Z,5.02
2019-05-23T04:11:22.810Z,5.07
2019-05-23T04:12:22.783Z,5.10
2019-05-23T04:13:22.752Z,5.09
2019-05-23T04:14:22.720Z,5.13
2019-05-23T04:15:22.695Z,5.15
2019-05-23T04:16:22.659Z,5.09
2019-05-23T04:17:22.631Z,5.17
2019-05-23T04:18:22.601Z,5.12
2019-05-23T04:19:22.575Z,5.24
2019-05-23T04:20:22.544Z,5.15
2019-05-23T04:21:22.511Z,5.25
2019-05-23T04:22:22.484Z,5.24
2019-05-23T04:23:22.531Z,5.30
2019-05-23T04:24:22.418Z,5.30
2019-05-23T04:25:22.389Z,5.31
2019-05-23T04:26:22.360Z,5.40
2019-05-23T04:27:22.333Z,5.45
2019-05-23T04:28:22.299Z,5.48
2019-05-23T04:29:22.275Z,5.54
2019-05-23T04:30:22.241Z,5.51
2019-05-23T04:31:22.244Z,5.72
2019-05-23T04:32:22.181Z,5.79
2019-05-23T04:33:22.150Z,5.85
2019-05-23T04:34:22.120Z,5.93
2019-05-23T04:35:22.101Z,6.14
2019-05-23T04:36:22.066Z,6.22
2019-05-23T04:37:22.045Z,6.36
2019-05-23T04:38:22.014Z,6.41
2019-05-23T04:39:21.978Z,6.48
2019-05-23T04:40:21.952Z,6.56
2019-05-23T04:41:21.917Z,6.67
2019-05-23T04:42:21.888Z,6.79
2019-05-23T04:43:21.859Z,6.98
2019-05-23T04:44:21.830Z,6.97
2019-05-23T04:45:21.799Z,7.06
2019-05-23T04:46:21.777Z,7.24
2019-05-23T04:47:21.742Z,7.28
2019-05-23T04:48:21.713Z,7.46
2019-05-23T04:49:21.695Z,7.63
2019-05-23T04:50:21.656Z,7.69
2019-05-23T04:51:21.627Z,7.82
2019-05-23T04:52:21.597Z,8.04
2019-05-23T04:53:21.570Z,8.18
2019-05-23T04:54:21.540Z,8.36
2019-05-23T04:55:21.514Z,8.41
2019-05-23T04:56:21.485Z,8.50
2019-05-23T04:57:21.459Z,8.68
2019-05-23T04:58:21.428Z,8.77
2019-05-23T04:59:21.399Z,8.91
2019-05-23T05:00:21.370Z,8.89
2019-05-23T05:01:21.346Z,9.02
2019-05-23T05:02:26.464Z,9.08
2019-05-23T05:03:21.307Z,9.17
2019-05-23T05:04:21.261Z,9.20
2019-05-23T05:05:21.233Z,9.35
2019-05-23T05:06:21.207Z,9.50
2019-05-23T05:07:21.182Z,9.58
2019-05-23T05:08:21.151Z,9.71
2019-05-23T05:09:21.124Z,9.76
2019-05-23T05:10:21.093Z,9.97
2019-05-23T05:11:21.069Z,10.05
2019-05-23T05:12:21.042Z,10.27
2019-05-23T05:13:21.013Z,10.33
2019-05-23T05:14:20.990Z,10.45
2019-05-23T05:15:20.961Z,10.59
2019-05-23T05:16:20.933Z,10.56
2019-05-23T05:17:20.918Z,10.64
2019-05-23T05:18:20.878Z,10.74
2019-05-23T05:19:20.851Z,10.88
2019-05-23T05:20:20.825Z,10.88
2019-05-23T05:21:20.802Z,10.84
2019-05-23T05:22:20.773Z,11.00
2019-05-23T05:23:20.747Z,11.32
2019-05-23T05:24:20.721Z,11.57
2019-05-23T05:25:20.712Z,11.99
2019-05-23T05:26:20.678Z,12.92
2019-05-23T05:27:20.644Z,13.22
2019-05-23T05:28:20.617Z,13.85
2019-05-23T05:29:20.592Z,14.14
2019-05-23T05:30:20.569Z,14.84
2019-05-23T05:31:20.542Z,15.43
2019-05-23T05:32:20.521Z,15.72
2019-05-23T05:33:20.496Z,15.87
2019-05-23T05:34:20.475Z,15.49
2019-05-23T05:35:20.457Z,15.57
2019-05-23T05:36:20.427Z,16.24
2019-05-23T05:37:20.402Z,16.42
2019-05-23T05:38:20.377Z,16.63
2019-05-23T05:39:20.358Z,17.12
2019-05-23T05:40:20.342Z,17.25
2019-05-23T05:41:20.343Z,16.96
2019-05-23T05:42:20.291Z,16.68
2019-05-23T05:43:20.269Z,16.04
2019-05-23T05:44:20.274Z,15.74
2019-05-23T05:45:20.232Z,15.62
2019-05-23T05:46:20.205Z,15.72
2019-05-23T05:47:20.184Z,15.86
2019-05-23T05:48:20.161Z,15.87
2019-05-23T05:49:20.144Z,16.00
2019-05-23T05:50:20.119Z,16.42
2019-05-23T05:51:20.103Z,16.68
2019-05-23T05:52:20.076Z,16.50
2019-05-23T05:53:20.055Z,15.93
2019-05-23T05:54:20.033Z,15.20
2019-05-23T05:55:20.012Z,15.19
2019-05-23T05:56:19.994Z,15.47
2019-05-23T05:57:19.972Z,15.76
2019-05-23T05:58:19.949Z,15.41
2019-05-23T05:59:19.928Z,15.39
2019-05-23T06:00:19.916Z,15.68
2019-05-23T06:01:33.303Z,15.74
2019-05-23T06:02:19.912Z,15.90
2019-05-23T06:03:19.849Z,16.07
2019-05-23T06:04:19.822Z,16.57
2019-05-23T06:05:19.811Z,16.56
2019-05-23T06:06:19.784Z,16.53
2019-05-23T06:07:19.761Z,16.52
2019-05-23T06:08:19.737Z,16.60
2019-05-23T06:09:19.718Z,16.48
2019-05-23T06:10:19.698Z,16.31
2019-05-23T06:11:19.675Z,15.87
2019-05-23T06:12:19.653Z,15.75
2019-05-23T06:13:19.633Z,15.74
2019-05-23T06:14:19.625Z,15.94
2019-05-23T06:15:19.591Z,16.31
2019-05-23T06:16:19.574Z,16.50
2019-05-23T06:17:19.553Z,16.96
2019-05-23T06:18:19.526Z,17.19
2019-05-23T06:19:19.508Z,17.44
2019-05-23T06:20:19.487Z,17.74
2019-05-23T06:21:19.467Z,18.12
2019-05-23T06:22:19.446Z,18.12
2019-05-23T06:23:19.427Z,18.23
2019-05-23T06:24:37.802Z,18.48
2019-05-23T06:25:19.389Z,18.78
2019-05-23T06:26:19.370Z,18.95
2019-05-23T06:27:19.347Z,18.99
2019-05-23T06:28:19.327Z,19.19
2019-05-23T06:29:19.316Z,19.02
2019-05-23T06:30:19.285Z,18.65
2019-05-23T06:31:19.269Z,18.05
2019-05-23T06:32:19.247Z,18.02
2019-05-23T06:33:23.990Z,18.45
2019-05-23T06:34:19.218Z,18.90
2019-05-23T06:35:19.190Z,19.36
2019-05-23T06:36:19.169Z,18.92
2019-05-23T06:37:19.152Z,18.91
2019-05-23T06:38:19.132Z,19.23
2019-05-23T06:39:19.115Z,19.58
2019-05-23T06:40:19.163Z,19.92
2019-05-23T06:41:19.076Z,20.28
2019-05-23T06:42:19.064Z,20.55
2019-05-23T06:43:19.039Z,20.64
2019-05-23T06:44:19.059Z,20.48
2019-05-23T06:45:19.008Z,20.67
2019-05-23T06:46:18.991Z,20.87
2019-05-23T06:47:18.967Z,20.38
2019-05-23T06:48:18.952Z,20.64
2019-05-23T06:49:18.931Z,19.84
2019-05-23T06:50:18.911Z,19.39
2019-05-23T06:51:18.895Z,19.55
2019-05-23T06:52:18.903Z,19.47
2019-05-23T06:53:18.864Z,18.50
2019-05-23T06:54:18.839Z,18.87
2019-05-23T06:55:18.823Z,19.22
2019-05-23T06:56:18.811Z,19.36
2019-05-23T06:57:18.785Z,19.36
2019-05-23T06:58:18.815Z,18.67
2019-05-23T06:59:18.751Z,18.32
2019-05-23T07:00:18.734Z,18.05
2019-05-23T07:01:18.713Z,18.14
2019-05-23T07:02:18.697Z,18.95
2019-05-23T07:03:18.681Z,19.44
2019-05-23T07:04:18.656Z,19.69
2019-05-23T07:05:18.679Z,19.04
2019-05-23T07:06:18.621Z,18.25
2019-05-23T07:07:18.601Z,17.54
2019-05-23T07:08:18.583Z,16.78
2019-05-23T07:09:18.568Z,16.70
2019-05-23T07:10:18.571Z,17.14
2019-05-23T07:11:18.537Z,17.21
2019-05-23T07:12:18.517Z,17.70
2019-05-23T07:13:18.504Z,17.15
2019-05-23T07:14:18.537Z,17.55
2019-05-23T07:15:18.447Z,18.33
2019-05-23T07:16:18.431Z,19.13
2019-05-23T07:17:18.411Z,19.73
2019-05-23T07:18:18.392Z,19.78
2019-05-23T07:19:18.371Z,19.69
2019-05-23T07:20:18.361Z,19.62
2019-05-23T07:21:18.332Z,19.94
2019-05-23T07:22:19.557Z,20.47
2019-05-23T07:23:18.450Z,20.64
2019-05-23T07:24:18.272Z,20.66
2019-05-23T07:25:18.254Z,20.87
2019-05-23T07:26:18.236Z,21.10
2019-05-23T07:27:18.217Z,21.53
2019-05-23T07:28:18.196Z,21.59
2019-05-23T07:29:18.179Z,21.88
2019-05-23T07:30:18.159Z,21.88
2019-05-23T07:31:18.140Z,22.14
2019-05-23T07:32:18.133Z,22.72
2019-05-23T07:33:18.113Z,22.90
2019-05-23T07:34:18.089Z,22.98
2019-05-23T07:35:18.080Z,22.61
2019-05-23T07:36:18.053Z,22.37
2019-05-23T07:37:18.038Z,22.36
2019-05-23T07:38:18.030Z,22.39
2019-05-23T07:39:18.042Z,21.79
2019-05-23T07:40:17.993Z,21.80
2019-05-23T07:41:17.971Z,22.06
2019-05-23T07:42:17.951Z,21.88
2019-05-23T07:43:17.934Z,22.20
2019-05-23T07:44:18.015Z,22.43
2019-05-23T07:45:17.902Z,22.25
2019-05-23T07:46:17.884Z,22.06
2019-05-23T07:47:17.869Z,22.36
2019-05-23T07:48:17.858Z,22.40
2019-05-23T07:49:17.835Z,22.68
2019-05-23T07:50:17.817Z,22.75
2019-05-23T07:51:17.816Z,22.64
2019-05-23T07:52:17.789Z,22.07
2019-05-23T07:53:17.779Z,22.18
2019-05-23T07:54:17.751Z,22.25
2019-05-23T07:55:17.736Z,21.98
2019-05-23T07:56:17.721Z,22.22
2019-05-23T07:57:17.702Z,22.70
2019-05-23T07:58:17.689Z,22.64
2019-05-23T07:59:17.669Z,22.64
2019-05-23T08:00:17.651Z,22.60
2019-05-23T08:01:17.635Z,22.28
2019-05-23T08:02:17.619Z,22.80
2019-05-23T08:03:17.603Z,22.61
2019-05-23T08:04:22.073Z,22.65
2019-05-23T08:05:17.569Z,22.33
2019-05-23T08:06:17.557Z,22.60
2019-05-23T08:07:17.542Z,22.76
2019-05-23T08:08:17.538Z,22.97
2019-05-23T08:09:17.505Z,23.32
2019-05-23T08:10:32.547Z,23.75
2019-05-23T08:11:17.473Z,23.94
2019-05-23T08:12:17.458Z,24.20
2019-05-23T08:13:17.446Z,23.95
2019-05-23T08:14:17.428Z,24.08
2019-05-23T08:15:17.413Z,23.91
2019-05-23T08:16:17.395Z,23.53
2019-05-23T08:17:17.380Z,23.09
2019-05-23T08:18:17.364Z,23.19
2019-05-23T08:19:19.622Z,23.31
2019-05-23T08:20:17.331Z,23.09
2019-05-23T08:21:17.317Z,23.38
2019-05-23T08:22:17.302Z,23.28
2019-05-23T08:23:17.287Z,23.76
2019-05-23T08:24:17.271Z,23.43
2019-05-23T08:25:17.257Z,23.47
2019-05-23T08:26:17.239Z,23.05
2019-05-23T08:27:17.224Z,22.72
2019-05-23T08:28:17.208Z,23.42
2019-05-23T08:29:26.443Z,23.78
2019-05-23T08:30:17.177Z,23.93
2019-05-23T08:31:17.162Z,23.07
2019-05-23T08:32:17.145Z,23.32
2019-05-23T08:33:17.200Z,23.63
2019-05-23T08:34:17.131Z,23.05
2019-05-23T08:35:18.161Z,22.86
2019-05-23T08:36:17.086Z,23.48
2019-05-23T08:37:17.074Z,23.95
2019-05-23T08:38:17.056Z,24.37
2019-05-23T08:39:17.104Z,24.24
2019-05-23T08:40:17.038Z,23.93
2019-05-23T08:41:17.010Z,24.21
2019-05-23T08:42:16.994Z,24.37
2019-05-23T08:43:16.979Z,24.30
2019-05-23T08:44:16.963Z,23.83
2019-05-23T08:45:16.955Z,23.73
2019-05-23T08:46:16.932Z,23.48
2019-05-23T08:47:16.918Z,23.42
2019-05-23T08:48:16.901Z,23.42
2019-05-23T08:49:16.886Z,23.42
2019-05-23T08:50:16.870Z,23.63
2019-05-23T08:51:16.856Z,24.10
2019-05-23T08:52:16.844Z,24.31
2019-05-23T08:53:16.823Z,24.50
2019-05-23T08:54:16.807Z,24.32
2019-05-23T08:55:16.843Z,23.80
2019-05-23T08:56:19.575Z,23.87
2019-05-23T08:57:16.768Z,24.39
2019-05-23T08:58:17.371Z,24.64
2019-05-23T08:59:16.734Z,24.52
2019-05-23T09:00:16.716Z,24.73
2019-05-23T09:01:16.735Z,25.13
2019-05-23T09:02:16.688Z,25.10
2019-05-23T09:03:16.672Z,24.83
2019-05-23T09:04:16.660Z,24.64
2019-05-23T09:05:16.646Z,24.03
2019-05-23T09:06:16.626Z,24.43
2019-05-23T09:07:16.642Z,24.80
2019-05-23T09:08:17.354Z,24.60
2019-05-23T09:09:29.322Z,24.45
2019-05-23T09:10:16.565Z,24.67
2019-05-23T09:11:16.554Z,24.64
2019-05-23T09:12:16.578Z,24.68
2019-05-23T09:13:16.523Z,24.57
2019-05-23T09:14:16.507Z,24.34
2019-05-23T09:15:16.493Z,23.75
2019-05-23T09:16:16.477Z,23.78
2019-05-23T09:17:16.462Z,23.73
2019-05-23T09:18:16.448Z,23.70
2019-05-23T09:19:16.472Z,23.73
2019-05-23T09:20:16.417Z,23.54
2019-05-23T09:21:16.403Z,23.54
2019-05-23T09:22:16.386Z,23.79
2019-05-23T09:23:16.373Z,24.09
2019-05-23T09:24:16.361Z,24.16
2019-05-23T09:25:16.342Z,24.34
2019-05-23T09:26:16.328Z,24.76
2019-05-23T09:27:16.316Z,24.81
2019-05-23T09:28:16.299Z,24.49
2019-05-23T09:29:16.284Z,24.35
2019-05-23T09:30:16.267Z,24.05
2019-05-23T09:31:16.256Z,24.35
2019-05-23T09:32:16.237Z,24.42
2019-05-23T09:33:16.224Z,24.37
2019-05-23T09:34:16.216Z,24.65
2019-05-23T09:35:20.768Z,24.71
2019-05-23T09:36:16.230Z,25.21
2019-05-23T09:37:16.165Z,25.60
2019-05-23T09:38:16.155Z,25.62
2019-05-23T09:39:16.144Z,25.80
2019-05-23T09:40:16.129Z,25.80
2019-05-23T09:41:16.125Z,25.13
2019-05-23T09:42:16.092Z,24.73
2019-05-23T09:43:16.157Z,25.02
2019-05-23T09:44:16.063Z,25.20
2019-05-23T09:45:16.049Z,24.67
2019-05-23T09:46:16.035Z,24.77
2019-05-23T09:47:16.024Z,25.03
2019-05-23T09:48:16.005Z,24.98
2019-05-23T09:49:15.993Z,25.06
2019-05-23T09:50:15.976Z,25.08
2019-05-23T09:51:16.026Z,24.71
2019-05-23T09:52:16.145Z,24.83
2019-05-23T09:53:15.936Z,24.69
2019-05-23T09:54:15.918Z,24.67
2019-05-23T09:55:15.902Z,24.96
2019-05-23T09:56:15.894Z,25.00
2019-05-23T09:57:15.875Z,24.42
2019-05-23T09:58:15.862Z,23.53
2019-05-23T09:59:15.849Z,23.84
2019-05-23T10:00:15.838Z,24.37
2019-05-23T10:01:15.817Z,24.84
2019-05-23T10:02:15.801Z,25.00
2019-05-23T10:03:15.786Z,25.27
2019-05-23T10:04:15.773Z,25.50
2019-05-23T10:05:15.756Z,25.32
2019-05-23T10:06:15.750Z,25.28
2019-05-23T10:07:15.726Z,25.42
2019-05-23T10:08:15.719Z,25.39
2019-05-23T10:09:15.697Z,24.98
2019-05-23T10:10:15.691Z,25.05
2019-05-23T10:11:15.672Z,24.85
2019-05-23T10:12:15.655Z,24.91
2019-05-23T10:13:15.639Z,24.77
2019-05-23T10:14:15.622Z,25.18
2019-05-23T10:15:15.615Z,24.95
2019-05-23T10:16:15.602Z,24.57
2019-05-23T10:17:15.580Z,24.99
2019-05-23T10:18:15.566Z,24.78
2019-05-23T10:19:15.549Z,24.52
2019-05-23T10:20:15.543Z,23.63
2019-05-23T10:21:15.519Z,23.00
2019-05-23T10:22:15.507Z,23.42
2019-05-23T10:23:15.489Z,24.03
2019-05-23T10:24:15.475Z,24.32
2019-05-23T10:25:15.461Z,24.80
2019-05-23T10:26:15.445Z,25.20
2019-05-23T10:27:15.429Z,25.57
2019-05-23T10:28:15.416Z,25.72
2019-05-23T10:29:15.403Z,24.96
2019-05-23T10:30:15.383Z,25.09
2019-05-23T10:31:15.370Z,25.28
2019-05-23T10:32:15.356Z,25.73
2019-05-23T10:33:15.344Z,25.75
2019-05-23T10:34:15.369Z,25.87
2019-05-23T10:35:15.311Z,26.12
2019-05-23T10:36:15.296Z,25.98
2019-05-23T10:37:15.280Z,25.99
2019-05-23T10:38:15.266Z,26.05
2019-05-23T10:39:15.252Z,26.21
2019-05-23T10:40:15.236Z,26.44
2019-05-23T10:41:15.222Z,26.33
2019-05-23T10:42:15.205Z,26.50
2019-05-23T10:43:15.192Z,26.55
2019-05-23T10:44:15.177Z,25.98
2019-05-23T10:45:15.165Z,25.35
2019-05-23T10:46:15.148Z,25.30
2019-05-23T10:47:15.136Z,25.55
2019-05-23T10:48:15.120Z,25.14
2019-05-23T10:49:15.106Z,25.38
2019-05-23T10:50:15.091Z,25.72
2019-05-23T10:51:15.076Z,25.75
2019-05-23T10:52:15.063Z,25.97
2019-05-23T10:53:15.049Z,26.06
2019-05-23T10:54:15.032Z,25.77
2019-05-23T10:55:15.017Z,24.83
2019-05-23T10:56:20.042Z,24.96
2019-05-23T10:57:14.988Z,25.39
2019-05-23T10:58:14.978Z,25.83
2019-05-23T10:59:14.967Z,25.46
2019-05-23T11:00:14.946Z,24.98
2019-05-23T11:01:14.933Z,25.06
2019-05-23T11:02:14.916Z,25.51
2019-05-23T11:03:14.903Z,25.62
2019-05-23T11:04:14.954Z,26.06
2019-05-23T11:05:14.884Z,26.33
2019-05-23T11:06:16.784Z,26.50
2019-05-23T11:07:14.846Z,26.44
2019-05-23T11:08:14.835Z,26.62
2019-05-23T11:09:14.827Z,26.85
2019-05-23T11:10:14.798Z,27.00
2019-05-23T11:11:15.176Z,27.02
2019-05-23T11:12:14.770Z,27.06
2019-05-23T11:13:14.754Z,27.04
2019-05-23T11:14:14.749Z,27.49
2019-05-23T11:15:14.725Z,27.29
2019-05-23T11:16:14.712Z,26.67
2019-05-23T11:17:14.696Z,26.06
2019-05-23T11:18:14.685Z,25.14
2019-05-23T11:19:14.667Z,24.91
2019-05-23T11:20:14.656Z,24.93
2019-05-23T11:21:14.642Z,25.39
2019-05-23T11:22:14.623Z,25.79
2019-05-23T11:23:14.607Z,26.32
2019-05-23T11:24:14.641Z,26.67
2019-05-23T11:25:14.586Z,26.97
2019-05-23T11:26:14.569Z,27.34
2019-05-23T11:27:14.575Z,27.09
2019-05-23T11:28:14.544Z,27.02
2019-05-23T11:29:14.523Z,26.84
2019-05-23T11:30:14.508Z,26.69
2019-05-23T11:31:14.492Z,26.72
2019-05-23T11:32:14.538Z,27.04
2019-05-23T11:33:14.463Z,26.80
2019-05-23T11:34:14.446Z,26.92
2019-05-23T11:35:14.433Z,27.17
2019-05-23T11:36:14.419Z,27.28
2019-05-23T11:37:14.408Z,27.25
2019-05-23T11:38:14.389Z,27.31
2019-05-23T11:39:14.376Z,27.69
2019-05-23T11:40:14.405Z,27.19
2019-05-23T11:41:14.348Z,27.60
2019-05-23T11:42:14.335Z,27.44
2019-05-23T11:43:14.318Z,27.70
2019-05-23T11:44:14.304Z,27.50
2019-05-23T11:45:14.291Z,27.82
2019-05-23T11:46:14.274Z,27.77
2019-05-23T11:47:14.263Z,27.67
2019-05-23T11:48:16.171Z,27.78
2019-05-23T11:49:14.234Z,28.02
2019-05-23T11:50:14.220Z,27.99
2019-05-23T11:51:14.209Z,27.66
2019-05-23T11:52:14.543Z,27.59
2019-05-23T11:53:14.178Z,27.12
2019-05-23T11:54:14.166Z,26.82
2019-05-23T11:55:14.151Z,26.75
2019-05-23T11:56:14.133Z,26.76
2019-05-23T11:57:14.118Z,26.70
2019-05-23T11:58:14.104Z,26.32
2019-05-23T11:59:14.094Z,26.09
2019-05-23T12:00:14.076Z,25.87
2019-05-23T12:01:20.545Z,26.35
2019-05-23T12:02:14.045Z,26.45
2019-05-23T12:03:14.032Z,26.92
2019-05-23T12:04:14.018Z,27.24
2019-05-23T12:05:14.005Z,25.92
2019-05-23T12:06:13.989Z,25.02
2019-05-23T12:07:13.974Z,24.71
2019-05-23T12:08:13.959Z,25.46
2019-05-23T12:09:13.947Z,25.88
2019-05-23T12:10:13.932Z,26.50
2019-05-23T12:11:13.974Z,26.76
2019-05-23T12:12:13.901Z,26.85
2019-05-23T12:13:13.887Z,26.82
2019-05-23T12:14:13.872Z,27.19
2019-05-23T12:15:13.860Z,27.07
2019-05-23T12:16:13.841Z,27.39
2019-05-23T12:17:14.170Z,27.62
2019-05-23T12:18:13.812Z,27.97
2019-05-23T12:19:13.800Z,27.78
2019-05-23T12:20:13.781Z,27.66
2019-05-23T12:21:13.769Z,27.82
2019-05-23T12:22:13.754Z,27.99
2019-05-23T12:23:13.737Z,28.12
2019-05-23T12:24:13.721Z,28.21
2019-05-23T12:25:22.205Z,28.46
2019-05-23T12:26:13.693Z,28.46
2019-05-23T12:27:13.680Z,28.40
2019-05-23T12:28:13.703Z,28.24
2019-05-23T12:29:13.650Z,28.19
2019-05-23T12:30:13.636Z,27.87
2019-05-23T12:31:13.628Z,28.02
2019-05-23T12:32:13.616Z,28.31
2019-05-23T12:33:13.630Z,28.36
2019-05-23T12:34:13.578Z,27.65
2019-05-23T12:35:13.576Z,27.02
2019-05-23T12:36:13.553Z,27.10
2019-05-23T12:37:18.857Z,27.19
2019-05-23T12:38:13.544Z,26.55
2019-05-23T12:39:13.507Z,25.92
2019-05-23T12:40:13.495Z,26.44
2019-05-23T12:41:13.484Z,26.37
2019-05-23T12:42:13.468Z,26.45
2019-05-23T12:43:13.448Z,26.47
2019-05-23T12:44:17.128Z,26.32
2019-05-23T12:45:13.446Z,26.73
2019-05-23T12:46:13.451Z,27.21
2019-05-23T12:47:13.390Z,27.69
2019-05-23T12:48:13.374Z,28.03
2019-05-23T12:49:13.359Z,28.29
2019-05-23T12:50:13.347Z,27.90
2019-05-23T12:51:13.333Z,27.06
2019-05-23T12:52:13.314Z,26.43
2019-05-23T12:53:13.303Z,26.73
2019-05-23T12:54:13.302Z,26.97
2019-05-23T12:55:13.275Z,27.25
2019-05-23T12:56:13.280Z,27.17
2019-05-23T12:57:13.243Z,27.37
2019-05-23T12:58:13.228Z,27.63
2019-05-23T12:59:13.218Z,26.37
2019-05-23T13:00:13.198Z,24.85
2019-05-23T13:01:13.197Z,23.72
2019-05-23T13:02:13.169Z,23.84